Time;durP1;ratioP1;P1;durP2;ratioP2;P2;SDS_P1;SDS_P2;PMS_P1;PMS_P2;Temp;Humidity;BMP_temperature;BMP_pressure;BME280_temperature;BME280_humidity;BME280_pressure;Samples;Min_cycle;Max_cycle;Signal;HPM_P1;HPM_P2
2023/05/11 00:02:13;;;;;;;22.47;16.47;;;14.10;99.90;;;;;;5016938;28;20452;-80
2023/05/11 00:04:40;;;;;;;26.20;17.20;;;14.10;99.90;;;;;;5032656;28;20455;-81
2023/05/11 00:07:07;;;;;;;19.03;16.03;;;14.10;99.90;;;;;;5032981;28;20500;-80
2023/05/11 00:09:34;;;;;;;21.20;17.30;;;14.20;99.90;;;;;;5033318;28;20465;-80
2023/05/11 00:12:01;;;;;;;21.80;16.60;;;14.20;99.90;;;;;;5033179;28;20454;-78
2023/05/11 00:14:28;;;;;;;21.03;17.23;;;14.20;99.90;;;;;;5032284;28;20519;-80
2023/05/11 00:16:55;;;;;;;25.27;18.00;;;14.30;99.90;;;;;;5032941;28;20475;-80
2023/05/11 00:19:23;;;;;;;24.27;18.90;;;14.30;99.90;;;;;;5032778;28;20457;-79
2023/05/11 00:21:50;;;;;;;23.50;17.07;;;14.40;99.90;;;;;;5032144;28;20460;-79
2023/05/11 00:24:17;;;;;;;22.00;16.90;;;14.40;99.90;;;;;;5032277;28;20460;-79
2023/05/11 00:26:43;;;;;;;23.20;17.57;;;14.30;99.90;;;;;;5032432;28;20498;-80
2023/05/11 00:29:10;;;;;;;25.53;18.40;;;14.30;99.90;;;;;;5044046;28;20450;-80
2023/05/11 00:31:37;;;;;;;21.80;17.33;;;14.30;99.90;;;;;;5036958;28;20474;-78
2023/05/11 00:34:04;;;;;;;23.40;18.30;;;14.30;99.90;;;;;;5032087;28;20460;-79
2023/05/11 00:36:32;;;;;;;23.70;18.57;;;14.30;99.90;;;;;;5031974;28;20481;-80
2023/05/11 00:38:59;;;;;;;25.37;18.93;;;14.30;99.90;;;;;;5033154;28;20488;-79
2023/05/11 00:41:26;;;;;;;24.57;18.13;;;14.30;99.90;;;;;;5031873;28;20460;-79
2023/05/11 00:43:53;;;;;;;28.70;22.00;;;14.30;99.90;;;;;;5032070;28;20455;-78
2023/05/11 00:46:20;;;;;;;28.53;19.83;;;14.30;99.90;;;;;;5032362;28;21105;-77
2023/05/11 00:48:47;;;;;;;28.13;21.03;;;14.30;99.90;;;;;;5032419;28;20473;-79
2023/05/11 00:51:14;;;;;;;26.03;19.03;;;14.30;99.90;;;;;;5030917;28;21225;-77
2023/05/11 00:53:42;;;;;;;27.50;19.20;;;14.30;99.90;;;;;;5031414;28;20821;-79
2023/05/11 00:56:09;;;;;;;23.63;17.07;;;14.40;99.90;;;;;;5032122;28;21014;-80
2023/05/11 00:58:36;;;;;;;27.70;19.37;;;14.40;99.90;;;;;;5031415;28;20812;-79
2023/05/11 01:01:03;;;;;;;25.00;18.97;;;14.40;99.90;;;;;;5031795;28;20822;-78
2023/05/11 01:03:31;;;;;;;28.53;20.03;;;14.50;99.90;;;;;;5031183;28;21225;-77
2023/05/11 01:06:10;;;;;;;26.07;20.80;;;14.50;99.90;;;;;;5030989;28;20480;-79
2023/05/11 01:08:42;;;;;;;25.77;19.57;;;14.50;99.90;;;;;;5031257;28;20489;-79
2023/05/11 01:11:17;;;;;;;33.10;22.73;;;14.50;99.90;;;;;;5031086;28;20476;-78
2023/05/11 01:13:50;;;;;;;31.03;21.20;;;14.30;99.90;;;;;;5030861;28;20454;-78
2023/05/11 01:16:19;;;;;;;32.87;23.07;;;14.30;99.90;;;;;;5030838;28;20489;-80
2023/05/11 01:18:52;;;;;;;31.33;22.43;;;14.30;99.90;;;;;;5030963;28;20462;-78
2023/05/11 01:21:19;;;;;;;31.10;23.60;;;14.40;99.90;;;;;;5030363;28;20462;-78
2023/05/11 01:24:11;;;;;;;28.43;20.57;;;14.40;99.90;;;;;;5030861;28;20457;-78
2023/05/11 01:26:54;;;;;;;27.13;21.43;;;14.40;99.90;;;;;;5018599;28;20498;-78
2023/05/11 01:29:41;;;;;;;28.37;20.67;;;14.40;99.90;;;;;;5030952;28;20458;-79
2023/05/11 01:32:18;;;;;;;28.20;21.60;;;14.50;99.90;;;;;;5030946;28;20460;-79
2023/05/11 01:34:47;;;;;;;31.87;22.90;;;14.50;99.90;;;;;;5030977;28;20469;-79
2023/05/11 01:37:18;;;;;;;27.03;21.73;;;14.50;99.90;;;;;;5030639;28;21044;-78
2023/05/11 01:39:51;;;;;;;37.10;23.63;;;14.40;99.90;;;;;;5031103;28;20461;-79
2023/05/11 01:42:22;;;;;;;28.13;20.17;;;14.50;99.90;;;;;;5030493;28;20453;-78
2023/05/11 01:44:53;;;;;;;28.87;20.40;;;14.50;99.90;;;;;;5030979;28;20458;-77
2023/05/11 01:47:23;;;;;;;28.53;20.50;;;14.40;99.90;;;;;;5030239;28;20509;-78
2023/05/11 01:49:51;;;;;;;29.07;22.40;;;14.40;99.90;;;;;;5031035;28;20468;-76
2023/05/11 01:52:23;;;;;;;27.37;20.93;;;14.40;99.90;;;;;;5030290;28;20456;-78
2023/05/11 01:54:52;;;;;;;26.13;20.53;;;14.30;99.90;;;;;;5030696;28;21064;-77
2023/05/11 01:57:21;;;;;;;24.87;19.93;;;14.30;99.90;;;;;;5030731;28;20500;-78
2023/05/11 01:59:50;;;;;;;26.73;20.77;;;14.30;99.90;;;;;;5031149;28;20451;-79
2023/05/11 02:02:18;;;;;;;34.23;22.50;;;14.20;99.90;;;;;;5030783;28;20547;-79
2023/05/11 02:04:47;;;;;;;28.87;20.87;;;14.20;99.90;;;;;;5032531;28;20470;-78
2023/05/11 02:07:16;;;;;;;25.33;19.43;;;14.20;99.90;;;;;;5034519;28;20496;-77
2023/05/11 02:09:44;;;;;;;31.23;20.73;;;14.10;99.90;;;;;;5034451;28;20454;-79
2023/05/11 02:12:12;;;;;;;25.87;19.90;;;14.10;99.90;;;;;;5031775;28;20466;-78
2023/05/11 02:14:40;;;;;;;34.53;22.10;;;14.10;99.90;;;;;;5033792;28;20495;-77
2023/05/11 02:17:08;;;;;;;26.17;20.30;;;14.10;99.90;;;;;;5033677;28;20479;-77
2023/05/11 02:19:38;;;;;;;31.33;20.57;;;14.10;99.90;;;;;;5033713;28;20462;-79
2023/05/11 02:22:06;;;;;;;28.37;21.27;;;14.10;99.90;;;;;;5034445;28;20546;-79
2023/05/11 02:24:34;;;;;;;24.40;20.37;;;14.00;99.90;;;;;;5033374;28;20456;-78
2023/05/11 02:27:01;;;;;;;23.93;19.73;;;14.10;99.90;;;;;;5033557;28;20485;-78
2023/05/11 02:29:28;;;;;;;28.20;20.90;;;14.10;99.90;;;;;;5034042;28;20459;-78
2023/05/11 02:32:00;;;;;;;28.53;21.87;;;14.20;99.90;;;;;;5033673;28;20481;-78
2023/05/11 02:34:32;;;;;;;27.03;19.77;;;14.10;99.90;;;;;;5033625;28;20473;-79
2023/05/11 02:37:02;;;;;;;27.23;20.40;;;14.20;99.90;;;;;;5033636;28;20476;-78
2023/05/11 02:39:34;;;;;;;26.73;20.60;;;14.20;99.90;;;;;;5033980;28;20832;-78
2023/05/11 02:42:08;;;;;;;26.30;18.77;;;14.20;99.90;;;;;;5033650;28;20463;-78
2023/05/11 02:44:37;;;;;;;24.60;18.70;;;14.20;99.90;;;;;;5033403;28;20847;-77
2023/05/11 02:47:08;;;;;;;27.90;20.40;;;14.30;99.90;;;;;;5033423;28;21151;-77
2023/05/11 02:49:37;;;;;;;27.70;20.17;;;14.30;99.90;;;;;;5033274;28;20452;-78
2023/05/11 02:52:05;;;;;;;23.93;18.60;;;14.30;99.90;;;;;;5033467;28;20449;-78
2023/05/11 02:54:35;;;;;;;25.00;19.57;;;14.40;99.90;;;;;;5032817;28;20441;-79
2023/05/11 02:57:02;;;;;;;24.83;19.83;;;14.40;99.90;;;;;;5033091;28;20487;-77
2023/05/11 02:59:30;;;;;;;28.30;21.10;;;14.40;99.90;;;;;;5033547;28;20505;-79
2023/05/11 03:01:58;;;;;;;27.07;20.73;;;14.40;99.90;;;;;;5032738;28;20465;-79
2023/05/11 03:04:25;;;;;;;34.53;24.87;;;14.40;99.90;;;;;;5032952;28;20465;-77
2023/05/11 03:06:51;;;;;;;38.00;25.00;;;14.40;99.90;;;;;;5032949;28;21067;-79
2023/05/11 03:09:18;;;;;;;35.80;26.03;;;14.30;99.90;;;;;;5033375;28;20488;-77
2023/05/11 03:11:47;;;;;;;29.93;23.00;;;14.30;99.90;;;;;;5032776;28;20464;-78
2023/05/11 03:14:14;;;;;;;31.47;23.97;;;14.30;99.90;;;;;;5032632;28;20449;-79
2023/05/11 03:16:41;;;;;;;32.47;24.33;;;14.30;99.90;;;;;;5032548;28;20491;-78
2023/05/11 03:19:09;;;;;;;30.20;23.17;;;14.30;99.90;;;;;;5033116;28;20468;-78
2023/05/11 03:21:38;;;;;;;33.47;24.23;;;14.30;99.90;;;;;;5031719;28;20854;-79
2023/05/11 03:24:06;;;;;;;36.57;25.93;;;14.30;99.90;;;;;;5032835;28;20956;-77
2023/05/11 03:26:34;;;;;;;37.77;23.70;;;14.30;99.90;;;;;;5032755;28;20487;-78
2023/05/11 03:29:03;;;;;;;34.83;23.53;;;14.30;99.90;;;;;;5032675;28;20550;-78
2023/05/11 03:31:30;;;;;;;29.87;23.07;;;14.40;99.90;;;;;;5032852;28;20834;-77
2023/05/11 03:33:57;;;;;;;28.50;22.40;;;14.40;99.90;;;;;;5032416;28;20459;-79
2023/05/11 03:36:25;;;;;;;31.33;23.97;;;14.40;99.90;;;;;;5032464;28;20471;-77
2023/05/11 03:38:55;;;;;;;28.53;22.83;;;14.40;99.90;;;;;;5031800;28;20515;-77
2023/05/11 03:41:24;;;;;;;30.63;22.83;;;14.40;99.90;;;;;;5031115;28;20495;-79
2023/05/11 03:43:52;;;;;;;32.40;24.17;;;14.40;99.90;;;;;;5031981;28;20516;-78
2023/05/11 03:46:22;;;;;;;31.83;22.83;;;14.30;99.90;;;;;;5032354;28;21181;-78
2023/05/11 03:48:49;;;;;;;28.07;23.43;;;14.30;99.90;;;;;;5032349;28;20490;-78
2023/05/11 03:51:16;;;;;;;31.23;23.73;;;14.30;99.90;;;;;;5032315;28;20838;-76
2023/05/11 03:53:43;;;;;;;29.83;23.53;;;14.20;99.90;;;;;;5031480;28;20476;-78
2023/05/11 03:56:10;;;;;;;31.07;24.63;;;14.20;99.90;;;;;;5031244;28;20586;-77
2023/05/11 03:58:39;;;;;;;30.33;23.27;;;14.20;99.90;;;;;;5032463;28;20441;-77
2023/05/11 04:01:08;;;;;;;35.93;25.70;;;14.20;99.90;;;;;;5031792;28;20992;-78
2023/05/11 04:03:46;;;;;;;35.70;26.70;;;14.20;99.90;;;;;;5031957;28;20957;-77
2023/05/11 04:06:13;;;;;;;30.80;25.17;;;14.20;99.90;;;;;;5031121;28;20833;-78
2023/05/11 04:08:40;;;;;;;36.63;26.10;;;14.20;99.90;;;;;;5032376;28;20514;-79
2023/05/11 04:11:07;;;;;;;32.73;24.67;;;14.10;99.90;;;;;;5031842;28;20466;-78
2023/05/11 04:13:34;;;;;;;41.23;28.27;;;14.10;99.90;;;;;;5032271;28;20886;-76
2023/05/11 04:16:00;;;;;;;40.23;28.43;;;14.10;99.90;;;;;;5031622;28;20503;-78
2023/05/11 04:18:28;;;;;;;37.80;28.73;;;14.10;99.90;;;;;;5031063;28;20459;-78
2023/05/11 04:20:56;;;;;;;30.57;25.00;;;14.10;99.90;;;;;;5031197;28;20528;-79
2023/05/11 04:23:23;;;;;;;34.20;26.10;;;14.00;99.90;;;;;;5031127;28;20460;-77
2023/05/11 04:25:53;;;;;;;38.80;26.53;;;14.10;99.90;;;;;;5031376;28;20508;-77
2023/05/11 04:28:20;;;;;;;34.73;27.23;;;14.10;99.90;;;;;;5031787;28;20485;-78
2023/05/11 04:30:53;;;;;;;35.60;26.03;;;14.10;99.90;;;;;;5031703;28;20461;-79
2023/05/11 04:33:19;;;;;;;38.70;28.50;;;14.10;99.90;;;;;;5031769;28;20509;-77
2023/05/11 04:35:46;;;;;;;37.57;27.50;;;14.20;99.90;;;;;;5031473;28;20488;-78
2023/05/11 04:38:14;;;;;;;35.10;26.90;;;14.20;99.90;;;;;;5032167;28;20447;-78
2023/05/11 04:40:41;;;;;;;30.87;25.13;;;14.20;99.90;;;;;;5031617;28;20455;-78
2023/05/11 04:43:08;;;;;;;44.47;25.63;;;14.30;99.90;;;;;;5031692;28;20462;-77
2023/05/11 04:45:35;;;;;;;34.43;27.03;;;14.30;99.90;;;;;;5032743;28;20476;-79
2023/05/11 04:48:02;;;;;;;33.37;26.00;;;14.30;99.90;;;;;;5033325;28;20499;-79
2023/05/11 04:50:28;;;;;;;30.63;25.57;;;14.40;99.90;;;;;;5033360;28;20480;-79
2023/05/11 04:52:55;;;;;;;35.27;26.50;;;14.40;99.90;;;;;;5033070;28;21115;-79
2023/05/11 04:55:23;;;;;;;32.27;23.63;;;14.50;99.90;;;;;;5031927;28;20495;-78
2023/05/11 04:57:50;;;;;;;34.80;26.20;;;14.50;99.90;;;;;;5031420;28;20832;-77
2023/05/11 05:00:18;;;;;;;34.17;26.83;;;14.60;99.90;;;;;;5031330;28;20847;-78
2023/05/11 05:02:45;;;;;;;33.70;26.30;;;14.60;99.90;;;;;;5030754;28;20467;-77
2023/05/11 05:05:11;;;;;;;33.03;27.20;;;14.60;99.90;;;;;;5031455;28;20539;-77
2023/05/11 05:07:38;;;;;;;38.23;27.50;;;14.70;99.90;;;;;;5030805;28;20449;-78
2023/05/11 05:10:07;;;;;;;32.63;26.30;;;14.70;99.90;;;;;;5031599;28;20819;-77
2023/05/11 05:12:36;;;;;;;31.40;27.00;;;14.80;99.90;;;;;;5030742;28;20467;-78
2023/05/11 05:15:03;;;;;;;32.80;26.37;;;14.90;99.90;;;;;;5031175;28;20460;-78
2023/05/11 05:17:29;;;;;;;31.80;26.20;;;15.00;99.90;;;;;;5031490;28;20485;-78
2023/05/11 05:19:57;;;;;;;33.77;27.00;;;15.00;99.90;;;;;;5030952;28;20448;-78
2023/05/11 05:22:24;;;;;;;34.53;26.77;;;15.10;99.90;;;;;;5031172;28;20969;-77
2023/05/11 05:24:51;;;;;;;30.53;23.70;;;15.20;99.90;;;;;;5031160;28;20504;-77
2023/05/11 05:27:18;;;;;;;30.53;25.17;;;15.30;99.90;;;;;;5030936;28;20461;-79
2023/05/11 05:29:46;;;;;;;34.73;25.87;;;15.30;99.90;;;;;;5030304;28;20495;-78
2023/05/11 05:32:13;;;;;;;32.60;24.63;;;15.30;99.90;;;;;;5031345;28;20458;-78
2023/05/11 05:34:40;;;;;;;31.70;24.03;;;15.40;99.90;;;;;;5030563;28;20465;-81
2023/05/11 05:37:07;;;;;;;31.93;24.70;;;15.30;99.90;;;;;;5011882;28;20470;-79
2023/05/11 05:39:33;;;;;;;34.60;28.00;;;15.50;99.90;;;;;;5020150;28;20453;-78
2023/05/11 05:42:01;;;;;;;32.67;25.90;;;15.60;99.90;;;;;;5035331;28;20452;-79
2023/05/11 05:44:28;;;;;;;39.00;26.60;;;15.70;99.90;;;;;;5034692;28;20457;-78
2023/05/11 05:46:56;;;;;;;38.97;28.30;;;15.90;99.90;;;;;;5034577;28;20855;-78
2023/05/11 05:49:23;;;;;;;37.90;26.90;;;15.90;99.90;;;;;;5034683;28;20480;-79
2023/05/11 05:51:50;;;;;;;36.10;27.13;;;16.10;99.90;;;;;;5039436;28;20457;-79
2023/05/11 05:54:18;;;;;;;42.13;28.73;;;16.20;99.90;;;;;;5039230;28;20483;-80
2023/05/11 05:56:44;;;;;;;39.90;28.53;;;16.10;99.90;;;;;;5039050;28;20488;-81
2023/05/11 05:59:13;;;;;;;37.73;28.77;;;16.20;99.90;;;;;;5040277;28;20842;-79
2023/05/11 06:01:45;;;;;;;38.23;28.73;;;16.20;99.90;;;;;;5040703;28;20444;-80
2023/05/11 06:04:13;;;;;;;34.20;26.77;;;16.30;99.90;;;;;;5011113;28;20455;-80
2023/05/11 06:06:40;;;;;;;37.23;26.47;;;16.30;99.90;;;;;;5039466;28;20494;-81
2023/05/11 06:09:07;;;;;;;35.97;26.20;;;16.30;99.90;;;;;;5037325;28;20476;-81
2023/05/11 06:11:34;;;;;;;33.43;25.47;;;16.50;99.90;;;;;;5035863;28;20987;-79
2023/05/11 06:14:01;;;;;;;31.20;25.43;;;16.50;99.90;;;;;;5036961;28;20460;-77
2023/05/11 06:16:28;;;;;;;34.97;26.87;;;16.60;99.90;;;;;;5037713;28;20492;-79
2023/05/11 06:18:55;;;;;;;34.77;27.60;;;16.50;99.90;;;;;;5036453;28;20507;-80
2023/05/11 06:21:23;;;;;;;33.97;26.40;;;16.50;99.90;;;;;;5036209;28;20471;-80
2023/05/11 06:23:50;;;;;;;37.57;27.27;;;16.50;99.90;;;;;;5037845;28;21017;-79
2023/05/11 06:26:17;;;;;;;36.67;26.50;;;16.40;99.90;;;;;;5037857;28;20828;-80
2023/05/11 06:28:44;;;;;;;32.63;26.57;;;16.40;97.10;;;;;;5036129;28;21065;-79
2023/05/11 06:31:11;;;;;;;31.93;25.83;;;16.30;99.90;;;;;;5034910;28;20452;-81
2023/05/11 06:33:38;;;;;;;35.33;25.80;;;16.20;99.90;;;;;;5036938;28;20977;-79
2023/05/11 06:36:05;;;;;;;36.27;27.20;;;16.00;99.90;;;;;;5036892;28;20480;-79
2023/05/11 06:38:33;;;;;;;37.67;27.73;;;16.10;99.90;;;;;;5038074;28;20905;-81
2023/05/11 06:41:00;;;;;;;31.87;24.33;;;16.10;99.90;;;;;;5039959;28;20532;-80
2023/05/11 06:43:27;;;;;;;34.00;25.77;;;16.30;99.90;;;;;;5040972;28;20540;-79
2023/05/11 06:45:54;;;;;;;32.07;24.93;;;16.50;99.90;;;;;;5040311;28;20569;-81
2023/05/11 06:48:22;;;;;;;34.83;26.20;;;16.60;99.90;;;;;;5039325;28;20540;-81
2023/05/11 06:50:54;;;;;;;33.50;24.00;;;16.70;99.90;;;;;;5038692;28;20460;-79
2023/05/11 06:53:20;;;;;;;30.87;24.10;;;16.80;99.90;;;;;;5039266;28;20461;-78
2023/05/11 06:55:49;;;;;;;34.00;26.87;;;16.80;93.30;;;;;;5065135;22;20480;-83
2023/05/11 06:58:19;;;;;;;35.50;25.70;;;16.60;63.80;;;;;;5076737;28;20480;-82
2023/05/11 07:00:46;;;;;;;30.03;22.53;;;16.50;97.70;;;;;;5081212;28;20451;-83
2023/05/11 07:03:13;;;;;;;31.03;22.63;;;16.60;99.90;;;;;;5076711;28;21003;-83
2023/05/11 07:05:39;;;;;;;30.67;21.87;;;16.70;99.90;;;;;;5075760;28;20525;-83
2023/05/11 07:08:06;;;;;;;27.17;21.20;;;16.70;99.90;;;;;;5053512;28;20449;-83
2023/05/11 07:10:33;;;;;;;25.67;20.40;;;16.70;48.90;;;;;;5075086;28;20546;-82
2023/05/11 07:13:01;;;;;;;25.17;20.50;;;16.90;23.50;;;;;;5079137;28;20448;-83
2023/05/11 07:15:28;;;;;;;26.80;20.47;;;17.00;1.20;;;;;;5057456;28;20462;-83
2023/05/11 07:17:55;;;;;;;24.87;18.97;;;16.90;37.50;;;;;;5057935;28;20536;-84
2023/05/11 07:20:22;;;;;;;25.00;18.70;;;17.00;95.50;;;;;;5051656;28;20455;-83
2023/05/11 07:22:48;;;;;;;26.70;20.83;;;17.10;4.00;;;;;;5079838;28;20459;-83
2023/05/11 07:25:15;;;;;;;24.43;18.60;;;17.20;1.00;;;;;;5059564;28;20556;-84
2023/05/11 07:27:43;;;;;;;24.33;19.10;;;17.50;1.00;;;;;;5058818;28;20479;-84
2023/05/11 07:30:12;;;;;;;25.03;18.70;;;17.80;29.70;;;;;;5054904;28;20493;-83
2023/05/11 07:32:39;;;;;;;30.57;20.83;;;18.30;17.30;;;;;;5064132;28;20447;-83
2023/05/11 07:35:06;;;;;;;26.10;21.00;;;18.70;1.00;;;;;;5060816;28;21225;-83
2023/05/11 07:37:33;;;;;;;29.10;21.30;;;18.60;1.00;;;;;;5054023;28;20491;-83
2023/05/11 07:40:00;;;;;;;25.17;20.20;;;18.60;1.00;;;;;;5063537;28;20546;-81
2023/05/11 07:42:27;;;;;;;27.70;19.70;;;18.40;1.00;;;;;;5052179;28;20542;-82
2023/05/11 07:44:54;;;;;;;28.57;20.97;;;18.10;1.00;;;;;;5054232;28;20459;-82
2023/05/11 07:47:22;;;;;;;24.37;18.53;;;18.00;1.00;;;;;;5052701;28;20563;-82
2023/05/11 07:49:49;;;;;;;24.20;18.20;;;17.90;1.00;;;;;;5055265;28;21028;-82
2023/05/11 07:52:16;;;;;;;23.50;18.23;;;17.90;1.00;;;;;;5051161;28;20452;-82
2023/05/11 07:54:43;;;;;;;23.00;18.93;;;17.90;1.00;;;;;;5052761;28;20450;-83
2023/05/11 07:57:12;;;;;;;28.60;20.03;;;17.80;1.00;;;;;;5064061;28;20482;-83
2023/05/11 07:59:39;;;;;;;32.87;23.90;;;17.80;16.30;;;;;;5055993;28;20508;-83
2023/05/11 08:02:07;;;;;;;28.97;20.47;;;17.90;31.40;;;;;;5065017;28;20960;-83
2023/05/11 08:04:36;;;;;;;27.43;20.97;;;18.00;1.00;;;;;;5058935;28;20461;-83
2023/05/11 08:07:03;;;;;;;24.47;19.47;;;18.30;1.00;;;;;;5054385;28;20494;-83
2023/05/11 08:09:31;;;;;;;24.90;21.07;;;18.70;1.00;;;;;;5057051;28;20572;-84
2023/05/11 08:12:00;;;;;;;25.83;20.40;;;19.00;1.00;;;;;;5053329;28;20458;-83
2023/05/11 08:14:27;;;;;;;31.90;19.33;;;19.10;1.00;;;;;;5062288;28;20835;-83
2023/05/11 08:16:54;;;;;;;20.10;16.70;;;19.60;1.00;;;;;;5050983;28;20478;-83
2023/05/11 08:19:21;;;;;;;24.03;18.40;;;20.30;1.00;;;;;;5052111;28;20539;-83
2023/05/11 08:21:49;;;;;;;26.10;18.03;;;20.90;1.00;;;;;;5054002;28;20499;-83
2023/05/11 08:24:16;;;;;;;21.00;17.70;;;21.50;99.90;;;;;;5055615;28;20981;-83
2023/05/11 08:26:43;;;;;;;23.30;18.13;;;22.50;1.00;;;;;;5055332;28;20529;-83
2023/05/11 08:29:11;;;;;;;23.37;18.40;;;22.90;99.90;;;;;;5055238;28;20483;-83
2023/05/11 08:31:38;;;;;;;22.40;17.73;;;22.30;1.00;;;;;;5052478;28;20886;-83
2023/05/11 08:34:07;;;;;;;21.80;19.40;;;21.80;99.90;;;;;;5055186;28;20452;-83
2023/05/11 08:36:34;;;;;;;19.93;17.33;;;21.40;1.00;;;;;;5060146;28;20478;-83
2023/05/11 08:39:02;;;;;;;20.23;17.23;;;21.00;99.90;;;;;;5062781;28;20450;-83
2023/05/11 08:41:29;;;;;;;19.03;17.00;;;20.50;93.00;;;;;;5058290;28;20448;-83
2023/05/11 08:43:59;;;;;;;17.40;14.33;;;20.30;1.00;;;;;;5060153;28;20986;-83
2023/05/11 08:46:29;;;;;;;16.93;14.20;;;20.10;1.00;;;;;;5054192;28;20512;-82
2023/05/11 08:48:56;;;;;;;16.37;14.60;;;19.90;99.90;;;;;;5058088;28;20470;-84
2023/05/11 08:51:23;;;;;;;16.70;13.93;;;19.90;99.90;;;;;;5065036;28;20459;-84
2023/05/11 08:53:51;;;;;;;16.43;13.90;;;20.00;99.90;;;;;;5057570;28;20452;-83
2023/05/11 08:56:22;;;;;;;16.10;14.37;;;20.10;1.00;;;;;;5059316;28;20484;-83
2023/05/11 08:58:51;;;;;;;23.03;18.17;;;20.20;1.00;;;;;;5057155;28;20460;-83
2023/05/11 09:01:19;;;;;;;17.63;15.63;;;20.20;99.90;;;;;;5057103;28;20952;-84
2023/05/11 09:03:47;;;;;;;19.23;16.17;;;20.10;36.80;;;;;;5056318;28;20459;-83
2023/05/11 09:06:16;;;;;;;20.13;17.10;;;20.20;1.00;;;;;;5038229;28;20476;-82
2023/05/11 09:08:44;;;;;;;21.00;17.70;;;20.20;99.90;;;;;;5035803;28;20453;-83
2023/05/11 09:11:11;;;;;;;18.83;15.70;;;20.30;99.90;;;;;;5034834;28;20488;-83
2023/05/11 09:13:40;;;;;;;18.00;13.60;;;20.00;99.90;;;;;;5034249;28;20453;-83
2023/05/11 09:16:07;;;;;;;19.60;15.20;;;19.80;99.90;;;;;;5037411;28;20480;-83
2023/05/11 09:18:34;;;;;;;17.93;13.10;;;19.40;99.90;;;;;;5036661;28;20492;-83
2023/05/11 09:21:01;;;;;;;16.90;13.67;;;19.10;1.00;;;;;;5036361;28;20456;-83
2023/05/11 09:23:28;;;;;;;16.00;13.33;;;18.90;99.90;;;;;;5049018;28;20470;-83
2023/05/11 09:25:55;;;;;;;15.83;13.40;;;18.70;1.00;;;;;;5043757;28;20479;-83
2023/05/11 09:28:23;;;;;;;16.23;13.10;;;18.50;1.00;;;;;;5034600;28;20880;-83
2023/05/11 09:30:51;;;;;;;15.67;12.67;;;18.40;99.90;;;;;;5035163;28;20484;-83
2023/05/11 09:33:23;;;;;;;16.30;13.97;;;18.30;99.90;;;;;;5036043;28;20460;-84
2023/05/11 09:35:50;;;;;;;16.57;13.80;;;18.20;98.20;;;;;;5037090;28;20468;-82
2023/05/11 09:38:19;;;;;;;15.73;12.80;;;18.20;99.90;;;;;;5035109;28;20461;-83
2023/05/11 09:40:56;;;;;;;17.10;13.10;;;18.20;99.90;;;;;;5049046;28;20470;-83
2023/05/11 09:43:24;;;;;;;13.60;10.97;;;18.30;1.00;;;;;;5053043;28;20535;-83
2023/05/11 09:45:54;;;;;;;16.47;13.10;;;18.30;1.00;;;;;;5050587;28;20483;-83
2023/05/11 09:48:26;;;;;;;16.20;12.53;;;18.30;1.00;;;;;;5055814;28;20455;-83
2023/05/11 09:51:02;;;;;;;18.40;15.73;;;18.30;1.00;;;;;;5060365;28;20496;-83
2023/05/11 09:53:37;;;;;;;20.13;16.10;;;18.30;1.00;;;;;;5046286;28;20467;-83
2023/05/11 09:56:04;;;;;;;18.13;14.60;;;18.40;1.00;;;;;;5053473;28;20928;-83
2023/05/11 09:58:49;;;;;;;17.37;15.10;;;18.40;99.90;;;;;;5054452;28;21036;-83
2023/05/11 10:01:27;;;;;;;18.80;14.57;;;18.40;1.00;;;;;;5062865;28;20464;-82
2023/05/11 10:03:54;;;;;;;23.47;17.43;;;18.40;29.60;;;;;;5053635;28;20453;-83
2023/05/11 10:06:21;;;;;;;20.30;17.77;;;18.40;1.00;;;;;;5049231;28;20479;-83
2023/05/11 10:08:48;;;;;;;19.93;17.30;;;18.30;99.90;;;;;;5035193;28;20492;-83
2023/05/11 10:11:16;;;;;;;21.10;18.37;;;18.40;1.00;;;;;;5036914;28;20484;-82
2023/05/11 10:13:44;;;;;;;23.43;18.67;;;18.50;99.90;;;;;;5051016;28;20947;-83
2023/05/11 10:16:14;;;;;;;24.33;19.43;;;18.50;99.90;;;;;;5070056;28;20463;-83
2023/05/11 10:18:43;;;;;;;21.20;18.10;;;18.60;99.90;;;;;;5078064;28;20526;-83
2023/05/11 10:21:10;;;;;;;24.20;18.87;;;18.50;1.00;;;;;;5083276;28;20454;-82
2023/05/11 10:23:38;;;;;;;22.10;18.60;;;18.70;99.90;;;;;;5063412;28;20451;-83
2023/05/11 10:26:05;;;;;;;23.27;20.30;;;19.00;99.90;;;;;;5048566;28;20476;-83
2023/05/11 10:28:33;;;;;;;21.37;18.87;;;19.30;1.00;;;;;;5067001;28;20458;-83
2023/05/11 10:31:00;;;;;;;21.43;18.10;;;19.40;99.90;;;;;;5070189;28;20478;-82
2023/05/11 10:33:27;;;;;;;24.63;19.83;;;19.70;99.90;;;;;;5061896;28;20455;-82
2023/05/11 10:35:56;;;;;;;22.17;18.87;;;19.70;75.70;;;;;;5051962;28;20559;-83
2023/05/11 10:38:24;;;;;;;23.30;19.50;;;19.80;1.00;;;;;;5054267;28;20457;-83
2023/05/11 10:40:54;;;;;;;20.13;18.03;;;20.00;1.00;;;;;;5041514;28;20509;-83
2023/05/11 10:43:48;;;;;;;23.20;20.27;;;20.30;99.90;;;;;;5052216;28;20874;-83
2023/05/11 10:46:35;;;;;;;22.00;18.67;;;20.70;63.60;;;;;;5053813;28;20564;-83
2023/05/11 10:49:36;;;;;;;19.53;16.83;;;20.80;1.00;;;;;;5046437;28;20964;-82
2023/05/11 10:52:35;;;;;;;14.90;13.40;;;21.20;99.90;;;;;;5057182;28;20444;-82
2023/05/11 10:55:13;;;;;;;14.87;12.97;;;21.40;1.00;;;;;;5054889;28;20448;-82
2023/05/11 10:57:58;;;;;;;14.00;11.97;;;21.30;1.00;;;;;;5056814;28;20479;-82
2023/05/11 11:01:05;;;;;;;14.50;13.00;;;21.00;1.00;;;;;;5053820;28;20448;-82
2023/05/11 11:03:32;;;;;;;13.90;12.50;;;20.70;1.00;;;;;;5040210;28;20455;-83
2023/05/11 11:05:58;;;;;;;13.93;12.53;;;20.30;1.00;;;;;;5054725;28;20474;-83
2023/05/11 11:08:27;;;;;;;13.40;12.00;;;20.20;1.00;;;;;;5051283;28;20490;-82
2023/05/11 11:10:55;;;;;;;14.00;12.30;;;20.10;99.90;;;;;;5036561;28;20579;-82
2023/05/11 11:13:23;;;;;;;12.10;10.40;;;20.00;99.90;;;;;;5046175;28;20467;-82
2023/05/11 11:16:13;;;;;;;13.07;11.77;;;20.00;99.90;;;;;;5037476;28;20503;-82
2023/05/11 11:18:43;;;;;;;14.13;12.67;;;20.10;1.00;;;;;;5029061;28;20468;-82
2023/05/11 11:21:14;;;;;;;12.20;11.00;;;20.10;99.90;;;;;;5054604;28;20514;-82
2023/05/11 11:23:44;;;;;;;13.90;9.30;;;20.20;99.90;;;;;;5053812;28;20462;-82
2023/05/11 11:26:14;;;;;;;10.63;9.20;;;20.30;1.00;;;;;;5061837;28;20472;-83
2023/05/11 11:29:09;;;;;;;8.97;7.73;;;20.70;1.00;;;;;;5053640;28;20451;-83
2023/05/11 11:31:36;;;;;;;7.83;6.87;;;21.30;1.00;;;;;;5048159;28;20476;-84
2023/05/11 11:34:37;;;;;;;10.67;7.40;;;21.70;99.90;;;;;;5043828;28;20836;-83
2023/05/11 11:37:07;;;;;;;7.40;6.70;;;22.30;63.80;;;;;;5042859;28;20467;-82
2023/05/11 11:39:53;;;;;;;8.23;7.43;;;22.70;1.00;;;;;;5055197;28;20568;-83
2023/05/11 11:42:37;;;;;;;8.10;7.30;;;23.30;1.00;;;;;;5047525;28;20457;-83
2023/05/11 11:45:30;;;;;;;10.10;8.87;;;23.80;1.00;;;;;;5052556;28;20452;-83
2023/05/11 11:48:07;;;;;;;13.23;8.90;;;24.20;1.00;;;;;;5057649;28;20874;-83
2023/05/11 11:50:34;;;;;;;11.27;10.07;;;24.10;1.00;;;;;;5056249;28;20855;-83
2023/05/11 11:53:01;;;;;;;10.43;8.77;;;24.30;1.00;;;;;;5055950;28;20852;-83
2023/05/11 11:55:46;;;;;;;9.60;7.90;;;24.50;1.00;;;;;;5055722;28;20546;-84
2023/05/11 11:58:37;;;;;;;11.70;10.27;;;24.70;1.00;;;;;;5074127;28;20457;-83
2023/05/11 12:01:04;;;;;;;9.83;8.50;;;24.80;1.00;;;;;;5076064;28;20581;-82
2023/05/11 12:03:31;;;;;;;11.17;8.13;;;24.60;1.00;;;;;;5055440;28;20865;-83
2023/05/11 12:06:01;;;;;;;11.90;9.30;;;24.60;1.00;;;;;;5066543;28;20531;-84
2023/05/11 12:08:31;;;;;;;14.20;10.87;;;24.50;1.00;;;;;;5059030;28;20514;-83
2023/05/11 12:10:59;;;;;;;15.27;13.63;;;24.90;1.00;;;;;;5061049;28;20491;-84
2023/05/11 12:13:27;;;;;;;13.83;12.33;;;25.10;1.00;;;;;;5058172;28;20452;-84
2023/05/11 12:16:07;;;;;;;16.80;14.70;;;25.50;1.00;;;;;;5060103;28;21082;-83
2023/05/11 12:18:34;;;;;;;15.30;13.23;;;25.30;1.00;;;;;;5072182;28;20458;-84
2023/05/11 12:21:02;;;;;;;13.63;12.27;;;25.50;1.00;;;;;;5076335;28;20483;-83
2023/05/11 12:23:29;;;;;;;16.70;15.00;;;26.00;1.00;;;;;;5062816;28;20452;-83
2023/05/11 12:26:04;;;;;;;16.63;14.40;;;26.10;1.00;;;;;;5042205;28;20469;-83
2023/05/11 12:28:31;;;;;;;18.40;16.50;;;26.60;1.00;;;;;;5044693;28;20465;-82
2023/05/11 12:30:58;;;;;;;19.30;17.30;;;26.80;1.00;;;;;;5039768;28;20491;-83
2023/05/11 12:33:25;;;;;;;16.77;14.67;;;27.00;1.00;;;;;;5046219;28;20855;-83
2023/05/11 12:35:53;;;;;;;17.33;15.63;;;27.10;1.00;;;;;;5035062;28;20829;-83
2023/05/11 12:38:20;;;;;;;17.20;15.50;;;27.10;1.00;;;;;;5040104;28;20550;-83
2023/05/11 12:40:48;;;;;;;18.00;16.10;;;27.00;1.00;;;;;;5053449;28;20436;-83
2023/05/11 12:43:19;;;;;;;15.40;13.90;;;26.90;1.00;;;;;;5054569;28;20444;-83